Time;durP1;ratioP1;P1;durP2;ratioP2;P2;SDS_P1;SDS_P2;PMS_P1;PMS_P2;Temp;Humidity;BMP_temperature;BMP_pressure;BME280_temperature;BME280_humidity;BME280_pressure;Samples;Min_cycle;Max_cycle;Signal;HPM_P1;HPM_P2
2021/08/13 00:01:09;;;;;;;6.10;5.47;;;12.60;99.90;;;;;;4951913;28;20126;-79
2021/08/13 00:03:34;;;;;;;7.68;5.55;;;12.50;99.90;;;;;;4952663;28;20024;-79
2021/08/13 00:06:00;;;;;;;7.05;5.70;;;12.50;99.90;;;;;;4953052;28;20072;-79
2021/08/13 00:08:26;;;;;;;7.80;6.72;;;12.40;99.90;;;;;;4952845;28;20030;-79
2021/08/13 00:10:52;;;;;;;8.93;5.70;;;12.50;99.90;;;;;;4951677;28;20032;-79
2021/08/13 00:13:22;;;;;;;8.10;6.93;;;12.40;99.90;;;;;;4951540;28;20038;-79
2021/08/13 00:15:48;;;;;;;13.15;7.13;;;12.50;99.90;;;;;;4954660;28;20023;-79
2021/08/13 00:18:14;;;;;;;13.95;7.85;;;12.50;99.90;;;;;;4971950;28;20030;-79
2021/08/13 00:20:40;;;;;;;11.57;8.27;;;12.50;99.90;;;;;;4970802;28;20050;-79
2021/08/13 00:23:06;;;;;;;10.25;7.95;;;12.40;99.90;;;;;;4970573;28;20118;-79
2021/08/13 00:25:32;;;;;;;12.80;8.00;;;12.50;99.90;;;;;;4971946;28;20575;-79
2021/08/13 00:27:57;;;;;;;13.32;7.78;;;12.40;99.90;;;;;;4970772;28;20388;-79
2021/08/13 00:30:23;;;;;;;10.30;7.10;;;12.50;99.90;;;;;;4971427;28;20050;-79
2021/08/13 00:32:49;;;;;;;12.38;7.50;;;12.40;99.90;;;;;;4970668;28;20015;-79
2021/08/13 00:35:14;;;;;;;11.75;6.35;;;12.40;99.90;;;;;;4971505;28;20023;-79
2021/08/13 00:37:41;;;;;;;10.27;6.75;;;12.40;99.90;;;;;;4972072;28;20031;-79
2021/08/13 00:40:08;;;;;;;8.38;5.97;;;12.40;99.90;;;;;;4972182;28;20172;-79
2021/08/13 00:42:34;;;;;;;8.63;6.88;;;12.30;99.90;;;;;;4970464;28;20026;-79
2021/08/13 00:45:00;;;;;;;11.13;7.28;;;12.30;99.90;;;;;;4970267;28;20361;-79
2021/08/13 00:47:26;;;;;;;7.90;5.93;;;12.20;99.90;;;;;;4971131;28;20037;-79
2021/08/13 00:49:52;;;;;;;8.27;6.75;;;12.20;99.90;;;;;;4970356;28;20395;-79
2021/08/13 00:52:17;;;;;;;9.48;7.43;;;12.20;99.90;;;;;;4970182;28;20034;-79
2021/08/13 00:54:44;;;;;;;8.65;6.07;;;12.20;99.90;;;;;;4970357;28;20030;-79
2021/08/13 00:57:10;;;;;;;7.93;6.75;;;12.20;99.90;;;;;;4968718;28;20023;-79
2021/08/13 00:59:37;;;;;;;10.18;7.13;;;12.20;99.90;;;;;;4970210;28;20449;-79
2021/08/13 01:02:03;;;;;;;8.48;6.85;;;12.20;99.90;;;;;;4971386;28;20042;-79
2021/08/13 01:04:29;;;;;;;9.45;6.75;;;12.10;99.90;;;;;;4985579;28;20031;-79
2021/08/13 01:06:55;;;;;;;7.82;6.63;;;12.20;99.90;;;;;;4959208;28;20114;-79
2021/08/13 01:09:21;;;;;;;11.05;7.13;;;12.20;99.90;;;;;;4951991;28;20088;-79
2021/08/13 01:12:03;;;;;;;12.07;7.00;;;12.10;99.90;;;;;;4952107;28;20031;-79
2021/08/13 01:14:50;;;;;;;16.55;8.60;;;12.10;99.90;;;;;;4966875;28;20023;-79
2021/08/13 01:17:20;;;;;;;11.02;7.93;;;12.10;99.90;;;;;;4964002;28;20035;-79
2021/08/13 01:20:34;;;;;;;9.88;7.18;;;12.10;99.90;;;;;;4968322;28;20472;-79
2021/08/13 01:23:25;;;;;;;9.05;7.18;;;12.10;99.90;;;;;;4974771;28;20039;-79
2021/08/13 01:25:54;;;;;;;11.10;8.10;;;12.10;99.90;;;;;;4971326;28;20029;-79
2021/08/13 01:28:36;;;;;;;10.63;7.70;;;12.10;99.90;;;;;;4969809;28;20077;-79
2021/08/13 01:31:27;;;;;;;14.30;8.43;;;12.00;99.90;;;;;;4969901;28;20118;-79
2021/08/13 01:33:58;;;;;;;8.50;6.57;;;12.00;99.90;;;;;;4971183;28;20046;-79
2021/08/13 01:36:27;;;;;;;11.57;7.50;;;12.00;99.90;;;;;;4971029;28;20023;-79
2021/08/13 01:38:54;;;;;;;10.60;7.13;;;12.00;99.90;;;;;;4970629;28;20034;-79
2021/08/13 01:41:21;;;;;;;9.95;7.65;;;12.00;99.90;;;;;;4970948;28;20077;-79
2021/08/13 01:43:49;;;;;;;7.45;6.50;;;12.00;99.90;;;;;;4973292;28;20065;-79
2021/08/13 01:46:15;;;;;;;7.68;6.68;;;12.00;99.90;;;;;;4968889;28;20076;-79
2021/08/13 01:48:42;;;;;;;7.75;6.68;;;12.00;99.90;;;;;;4969835;28;20019;-79
2021/08/13 01:51:14;;;;;;;6.75;5.72;;;11.90;99.90;;;;;;4969647;28;20042;-79
2021/08/13 01:53:40;;;;;;;11.85;6.72;;;11.90;99.90;;;;;;4965712;28;20057;-79
2021/08/13 01:56:06;;;;;;;7.45;6.32;;;11.90;99.90;;;;;;4989198;28;20488;-79
2021/08/13 01:58:33;;;;;;;9.52;6.57;;;11.90;99.90;;;;;;4972577;28;20046;-79
2021/08/13 02:00:58;;;;;;;10.50;7.45;;;11.80;99.90;;;;;;4974130;28;20102;-79
2021/08/13 02:03:24;;;;;;;17.25;9.45;;;11.80;99.90;;;;;;4972370;28;20606;-79
2021/08/13 02:05:52;;;;;;;18.08;11.23;;;11.80;99.90;;;;;;4971642;28;20037;-79
2021/08/13 02:08:19;;;;;;;26.85;12.18;;;11.80;99.90;;;;;;4973895;28;20050;-79
2021/08/13 02:10:45;;;;;;;14.10;10.15;;;11.80;99.90;;;;;;4988888;28;20031;-79
2021/08/13 02:13:12;;;;;;;17.17;10.75;;;11.80;99.90;;;;;;4988880;28;20473;-79
2021/08/13 02:15:39;;;;;;;14.30;8.75;;;11.70;99.90;;;;;;4972624;28;20027;-79
2021/08/13 02:18:17;;;;;;;13.20;9.32;;;11.80;99.90;;;;;;4973828;28;20059;-79
2021/08/13 02:20:47;;;;;;;13.82;8.82;;;11.70;99.90;;;;;;4960643;28;20035;-79
2021/08/13 02:23:13;;;;;;;15.10;9.57;;;11.70;99.90;;;;;;4954426;28;20081;-79
2021/08/13 02:25:38;;;;;;;16.35;8.65;;;11.70;99.90;;;;;;4969291;28;20039;-79
2021/08/13 02:28:04;;;;;;;11.73;8.77;;;11.70;99.90;;;;;;4954423;28;20032;-79
2021/08/13 02:30:30;;;;;;;16.80;10.00;;;11.60;99.90;;;;;;4954291;28;20046;-79
2021/08/13 02:32:55;;;;;;;16.20;8.90;;;11.70;99.90;;;;;;4954441;28;20042;-79
2021/08/13 02:35:22;;;;;;;12.68;9.35;;;11.70;99.90;;;;;;4953080;29;20030;-79
2021/08/13 02:37:57;;;;;;;14.68;9.95;;;11.60;99.90;;;;;;4954277;28;20039;-79
2021/08/13 02:40:30;;;;;;;10.43;8.45;;;11.60;99.90;;;;;;4954772;28;20031;-79
2021/08/13 02:43:01;;;;;;;14.00;8.80;;;11.70;99.90;;;;;;4954315;28;20027;-79
2021/08/13 02:45:29;;;;;;;13.70;8.63;;;11.70;99.90;;;;;;4954048;28;20038;-79
2021/08/13 02:47:57;;;;;;;14.52;9.05;;;11.70;99.90;;;;;;4968962;28;20023;-79
2021/08/13 02:50:26;;;;;;;11.98;8.63;;;11.70;99.90;;;;;;4978814;28;20142;-79
2021/08/13 02:52:57;;;;;;;13.40;9.20;;;11.70;99.90;;;;;;4972205;28;20027;-79
2021/08/13 02:55:54;;;;;;;12.95;8.63;;;11.70;99.90;;;;;;4970954;28;20038;-79
2021/08/13 02:58:23;;;;;;;9.43;7.00;;;11.60;99.90;;;;;;4973422;28;20534;-79
2021/08/13 03:00:51;;;;;;;13.57;8.27;;;11.60;99.90;;;;;;4971714;28;20072;-79
2021/08/13 03:03:18;;;;;;;11.55;7.28;;;11.60;99.90;;;;;;4971925;28;20030;-79
2021/08/13 03:05:48;;;;;;;14.05;8.57;;;11.50;99.90;;;;;;4973351;28;20500;-79
2021/08/13 03:08:19;;;;;;;16.05;9.05;;;11.50;99.90;;;;;;4971964;28;20031;-79
2021/08/13 03:10:44;;;;;;;14.90;8.55;;;11.50;99.90;;;;;;4973076;28;20027;-79
2021/08/13 03:13:10;;;;;;;11.45;7.78;;;11.50;99.90;;;;;;4972861;28;20045;-79
2021/08/13 03:15:36;;;;;;;10.60;8.43;;;11.40;99.90;;;;;;4973058;28;20026;-79
2021/08/13 03:18:03;;;;;;;11.98;8.82;;;11.40;99.90;;;;;;4971777;28;20054;-79
2021/08/13 03:20:29;;;;;;;11.55;8.77;;;11.40;99.90;;;;;;4971133;28;20038;-79
2021/08/13 03:22:55;;;;;;;13.95;8.73;;;11.40;99.90;;;;;;4971853;28;20022;-79
2021/08/13 03:25:22;;;;;;;12.07;8.23;;;11.40;99.90;;;;;;4972858;28;20316;-79
2021/08/13 03:27:48;;;;;;;22.80;11.85;;;11.40;99.90;;;;;;4972251;28;20027;-79
2021/08/13 03:30:14;;;;;;;16.35;9.10;;;11.40;99.90;;;;;;4971406;28;20038;-80
2021/08/13 03:32:41;;;;;;;11.90;8.48;;;11.50;99.90;;;;;;4971433;28;20015;-79
2021/08/13 03:35:08;;;;;;;20.70;9.00;;;11.40;99.90;;;;;;4972456;28;20437;-79
2021/08/13 03:37:35;;;;;;;12.10;8.15;;;11.50;99.90;;;;;;4972629;28;20034;-79
2021/08/13 03:40:03;;;;;;;12.07;8.68;;;11.50;99.90;;;;;;4971457;28;20074;-79
2021/08/13 03:42:28;;;;;;;37.13;11.98;;;11.50;99.90;;;;;;4972187;28;20476;-79
2021/08/13 03:44:54;;;;;;;22.13;10.35;;;11.50;99.90;;;;;;4972643;28;20027;-79
2021/08/13 03:47:19;;;;;;;13.27;8.65;;;11.50;99.90;;;;;;4972469;28;20034;-79
2021/08/13 03:49:45;;;;;;;10.48;7.78;;;11.50;99.90;;;;;;4972725;28;20531;-79
2021/08/13 03:52:11;;;;;;;9.38;8.05;;;11.50;99.90;;;;;;4960106;28;20038;-79
2021/08/13 03:54:36;;;;;;;10.88;8.10;;;11.60;99.90;;;;;;4953186;28;20392;-79
2021/08/13 03:57:02;;;;;;;10.98;8.18;;;11.60;99.90;;;;;;4967858;28;20463;-79
2021/08/13 03:59:28;;;;;;;9.52;7.40;;;11.60;99.90;;;;;;4951806;28;20027;-79
2021/08/13 04:01:53;;;;;;;10.07;8.10;;;11.60;99.90;;;;;;4951809;28;20027;-79
2021/08/13 04:04:19;;;;;;;13.70;8.75;;;11.70;99.90;;;;;;4967687;28;20465;-79
2021/08/13 04:06:45;;;;;;;11.70;8.65;;;11.80;99.90;;;;;;4952608;28;20042;-80
2021/08/13 04:09:10;;;;;;;12.85;8.35;;;11.90;99.90;;;;;;4952899;28;20125;-80
2021/08/13 04:11:36;;;;;;;13.30;8.18;;;12.10;99.90;;;;;;4967568;28;20054;-80
2021/08/13 04:14:03;;;;;;;10.18;7.07;;;12.30;99.90;;;;;;4952894;28;20406;-80
2021/08/13 04:16:29;;;;;;;14.05;8.00;;;12.40;99.90;;;;;;4952839;28;20058;-80
2021/08/13 04:18:55;;;;;;;8.32;6.80;;;12.60;99.90;;;;;;4952889;28;20063;-79
2021/08/13 04:21:20;;;;;;;10.15;5.78;;;12.70;99.90;;;;;;4957221;28;20022;-80
2021/08/13 04:23:46;;;;;;;6.32;5.18;;;12.90;99.90;;;;;;4972145;28;20384;-80
2021/08/13 04:26:11;;;;;;;6.63;4.68;;;13.00;99.90;;;;;;4971994;28;20034;-79
2021/08/13 04:28:37;;;;;;;5.75;4.63;;;13.10;99.90;;;;;;4971485;28;20049;-79
2021/08/13 04:31:03;;;;;;;6.55;4.50;;;13.30;99.90;;;;;;4971840;28;20118;-80
2021/08/13 04:33:29;;;;;;;11.20;6.55;;;13.50;99.90;;;;;;4971538;28;20026;-79
2021/08/13 04:35:54;;;;;;;8.73;6.28;;;13.80;99.90;;;;;;4972310;28;20026;-79
2021/08/13 04:38:21;;;;;;;16.00;7.20;;;13.90;99.90;;;;;;4967018;28;20031;-80
2021/08/13 04:40:46;;;;;;;11.68;6.60;;;14.10;99.90;;;;;;4952562;28;20023;-80
2021/08/13 04:43:12;;;;;;;9.98;5.68;;;14.20;99.90;;;;;;4965841;28;20035;-80
2021/08/13 04:45:38;;;;;;;8.93;5.65;;;14.30;99.90;;;;;;4970444;28;20058;-80
2021/08/13 04:48:03;;;;;;;12.90;5.93;;;14.40;99.90;;;;;;4968595;28;20027;-80
2021/08/13 04:50:29;;;;;;;7.32;5.57;;;14.40;99.90;;;;;;4970301;28;20121;-80
2021/08/13 04:52:55;;;;;;;8.15;5.88;;;14.50;99.90;;;;;;4952603;28;20023;-80
2021/08/13 04:55:23;;;;;;;7.20;5.47;;;14.60;99.90;;;;;;4952238;28;20607;-80
2021/08/13 04:57:49;;;;;;;7.43;6.20;;;14.60;99.90;;;;;;4952190;28;20031;-80
2021/08/13 05:00:15;;;;;;;7.45;6.80;;;14.80;99.90;;;;;;4952153;28;20023;-79
2021/08/13 05:02:41;;;;;;;11.88;6.75;;;14.90;99.90;;;;;;4952235;28;20027;-79
2021/08/13 05:05:07;;;;;;;13.52;7.70;;;15.00;99.90;;;;;;4952190;28;20030;-79
2021/08/13 05:07:33;;;;;;;10.95;7.05;;;15.10;99.90;;;;;;4966885;28;20024;-79
2021/08/13 05:10:04;;;;;;;9.85;8.35;;;15.20;99.90;;;;;;4966935;28;20042;-79
2021/08/13 05:12:29;;;;;;;11.52;8.65;;;15.30;99.90;;;;;;4955670;28;20362;-79
2021/08/13 05:14:55;;;;;;;14.27;8.48;;;15.40;99.90;;;;;;4970094;28;20033;-79
2021/08/13 05:17:21;;;;;;;10.98;9.13;;;15.50;99.90;;;;;;4969016;28;20030;-79
2021/08/13 05:19:46;;;;;;;7.60;6.78;;;15.70;99.90;;;;;;4963416;28;20049;-79
2021/08/13 05:22:12;;;;;;;13.40;9.02;;;15.90;99.90;;;;;;4978347;28;20101;-79
2021/08/13 05:24:38;;;;;;;9.35;8.45;;;16.00;99.90;;;;;;4986192;28;20392;-79
2021/08/13 05:27:04;;;;;;;11.38;8.43;;;16.10;99.90;;;;;;4970884;28;20164;-79
2021/08/13 05:29:29;;;;;;;10.38;9.27;;;16.30;99.90;;;;;;4971037;28;20469;-79
2021/08/13 05:31:55;;;;;;;14.23;9.82;;;16.50;99.90;;;;;;4969932;28;20114;-79
2021/08/13 05:34:20;;;;;;;13.88;10.10;;;16.70;99.90;;;;;;4969761;28;20023;-79
2021/08/13 05:36:46;;;;;;;11.77;10.50;;;16.90;99.90;;;;;;4971104;28;20027;-79
2021/08/13 05:39:12;;;;;;;11.50;9.35;;;17.10;99.90;;;;;;4969784;28;20037;-79
2021/08/13 05:41:37;;;;;;;13.10;10.30;;;17.30;99.90;;;;;;4969322;28;20050;-79
2021/08/13 05:44:03;;;;;;;10.52;7.65;;;17.50;99.90;;;;;;4970902;28;20019;-79
2021/08/13 05:46:29;;;;;;;12.55;8.80;;;17.60;99.90;;;;;;4969804;28;20027;-79
2021/08/13 05:48:54;;;;;;;10.15;8.18;;;17.90;99.90;;;;;;4970948;28;20027;-79
2021/08/13 05:51:20;;;;;;;10.30;8.52;;;18.00;99.90;;;;;;4968567;28;20378;-79
2021/08/13 05:53:46;;;;;;;9.15;8.35;;;18.20;99.90;;;;;;4969601;28;20022;-79
2021/08/13 05:56:12;;;;;;;8.85;7.95;;;18.30;99.90;;;;;;4969588;28;20023;-77
2021/08/13 05:58:37;;;;;;;7.88;7.20;;;18.50;99.90;;;;;;4985654;28;20042;-77
2021/08/13 06:01:05;;;;;;;8.32;7.45;;;18.60;98.50;;;;;;4970586;28;20061;-76
2021/08/13 06:03:30;;;;;;;8.88;7.53;;;18.80;99.90;;;;;;4985456;28;20160;-76
2021/08/13 06:05:56;;;;;;;10.25;8.05;;;19.00;97.70;;;;;;4985695;28;20142;-76
2021/08/13 06:08:22;;;;;;;8.65;6.88;;;19.20;97.60;;;;;;4969361;28;20083;-76
2021/08/13 06:10:47;;;;;;;9.05;6.80;;;19.40;90.00;;;;;;4970633;28;20061;-76
2021/08/13 06:13:18;;;;;;;7.10;6.40;;;19.50;91.60;;;;;;4968856;28;20043;-76
2021/08/13 06:15:44;;;;;;;8.07;7.07;;;19.60;92.60;;;;;;4969684;28;20035;-77
2021/08/13 06:18:10;;;;;;;9.30;7.45;;;19.70;87.90;;;;;;4970483;28;20534;-77
2021/08/13 06:20:35;;;;;;;11.18;6.72;;;19.80;88.40;;;;;;4953959;28;20035;-78
2021/08/13 06:23:01;;;;;;;7.05;6.35;;;19.80;90.10;;;;;;4963297;28;20034;-77
2021/08/13 06:25:27;;;;;;;7.63;6.78;;;20.00;91.80;;;;;;4970434;28;20045;-77
2021/08/13 06:27:52;;;;;;;8.07;6.35;;;20.10;91.90;;;;;;4970472;28;20362;-78
2021/08/13 06:30:19;;;;;;;6.90;6.20;;;20.30;88.00;;;;;;4972993;28;20039;-77
2021/08/13 06:32:45;;;;;;;6.70;5.95;;;20.40;84.30;;;;;;4972505;28;20023;-78
2021/08/13 06:35:11;;;;;;;7.65;5.90;;;20.50;82.50;;;;;;4988543;28;20080;-78
2021/08/13 06:38:03;;;;;;;7.53;5.97;;;20.60;85.50;;;;;;4972506;28;20118;-77
2021/08/13 06:40:32;;;;;;;9.73;6.90;;;20.60;82.50;;;;;;4988468;28;20065;-77
2021/08/13 06:42:58;;;;;;;7.05;6.45;;;20.50;84.30;;;;;;4973610;28;20019;-77
2021/08/13 06:45:23;;;;;;;16.45;7.18;;;20.50;85.30;;;;;;4973189;28;20033;-78
2021/08/13 06:47:50;;;;;;;7.03;5.78;;;20.50;86.20;;;;;;4972229;28;20065;-78
2021/08/13 06:50:16;;;;;;;7.40;6.63;;;20.50;87.80;;;;;;4972112;28;20130;-78
2021/08/13 06:52:42;;;;;;;6.78;6.20;;;20.50;87.40;;;;;;4962526;28;20027;-77
2021/08/13 06:55:08;;;;;;;10.05;6.70;;;20.60;86.70;;;;;;4968946;28;20599;-78
2021/08/13 06:57:34;;;;;;;8.27;6.45;;;20.60;85.70;;;;;;4968916;28;20027;-77
2021/08/13 07:00:09;;;;;;;12.82;6.38;;;20.70;87.10;;;;;;4967956;28;20165;-77
2021/08/13 07:02:35;;;;;;;6.93;6.22;;;20.80;85.50;;;;;;4964173;28;20428;-78
2021/08/13 07:05:01;;;;;;;9.57;6.00;;;20.80;84.70;;;;;;4973322;28;20031;-77
2021/08/13 07:07:27;;;;;;;7.80;6.55;;;20.90;86.00;;;;;;4957426;28;20038;-77
2021/08/13 07:09:53;;;;;;;7.35;6.55;;;21.00;86.00;;;;;;4953889;28;20070;-77
2021/08/13 07:12:19;;;;;;;7.85;6.93;;;21.30;84.20;;;;;;4952419;28;20114;-77
2021/08/13 07:14:45;;;;;;;9.25;6.97;;;21.40;86.00;;;;;;4968715;28;20110;-78
2021/08/13 07:17:11;;;;;;;7.57;6.85;;;21.50;86.70;;;;;;4953641;28;20027;-77
2021/08/13 07:19:36;;;;;;;10.07;6.43;;;21.70;85.30;;;;;;4952516;28;20138;-77
2021/08/13 07:22:03;;;;;;;6.32;5.72;;;21.70;79.70;;;;;;4952482;28;20433;-77
2021/08/13 07:24:29;;;;;;;7.70;7.00;;;21.80;79.70;;;;;;4968443;28;20031;-77
2021/08/13 07:26:54;;;;;;;6.93;6.32;;;21.90;82.40;;;;;;4953571;28;20038;-77
2021/08/13 07:29:21;;;;;;;10.57;6.40;;;22.00;81.20;;;;;;4953262;28;20023;-78
2021/08/13 07:31:48;;;;;;;7.22;6.53;;;22.10;77.50;;;;;;4969304;28;20397;-77
2021/08/13 07:34:13;;;;;;;8.48;5.70;;;22.20;78.70;;;;;;4953439;28;20401;-77
2021/08/13 07:36:39;;;;;;;9.93;6.13;;;22.30;76.00;;;;;;4961274;28;20030;-78
2021/08/13 07:39:05;;;;;;;6.65;6.10;;;22.40;78.10;;;;;;4987417;28;20034;-77
2021/08/13 07:41:30;;;;;;;7.68;5.75;;;22.50;76.10;;;;;;4971954;28;20416;-77
2021/08/13 07:43:56;;;;;;;10.40;7.53;;;22.50;75.30;;;;;;4962259;28;20031;-77
2021/08/13 07:46:22;;;;;;;6.35;5.75;;;22.60;75.80;;;;;;4968062;28;20051;-77
2021/08/13 07:48:47;;;;;;;7.75;6.13;;;22.70;77.00;;;;;;4968118;28;20027;-77
2021/08/13 07:51:13;;;;;;;10.75;6.88;;;22.70;77.50;;;;;;4967943;28;20097;-77
2021/08/13 07:53:39;;;;;;;7.85;6.03;;;22.80;76.70;;;;;;4953179;28;20074;-77
2021/08/13 07:56:05;;;;;;;6.10;5.60;;;22.90;74.80;;;;;;4953217;28;20023;-78
2021/08/13 07:58:31;;;;;;;8.45;5.50;;;22.70;73.80;;;;;;4951827;28;20027;-77
2021/08/13 08:00:57;;;;;;;12.68;6.03;;;22.90;72.50;;;;;;4968943;28;20027;-77
2021/08/13 08:03:22;;;;;;;6.20;5.45;;;23.10;72.30;;;;;;4952937;28;20362;-77
2021/08/13 08:05:48;;;;;;;5.85;5.35;;;23.30;72.20;;;;;;4954415;28;20105;-78
2021/08/13 08:08:14;;;;;;;7.47;6.20;;;23.50;70.90;;;;;;4952928;28;20366;-78
2021/08/13 08:10:45;;;;;;;10.48;6.38;;;23.60;69.80;;;;;;4952896;28;20035;-77
2021/08/13 08:13:11;;;;;;;5.10;4.70;;;23.80;68.70;;;;;;4956034;28;20022;-77
2021/08/13 08:15:37;;;;;;;5.68;5.18;;;23.80;63.30;;;;;;4971968;28;20388;-78
2021/08/13 08:18:03;;;;;;;5.55;5.05;;;23.90;63.40;;;;;;4972223;28;20117;-77
2021/08/13 08:20:28;;;;;;;5.10;4.50;;;24.10;66.00;;;;;;4971714;28;20042;-77
2021/08/13 08:22:54;;;;;;;6.78;5.63;;;24.20;63.50;;;;;;4972051;28;20431;-78
2021/08/13 08:25:20;;;;;;;5.57;4.82;;;24.30;61.50;;;;;;4972049;28;20361;-77
2021/08/13 08:27:45;;;;;;;5.75;5.00;;;24.20;58.30;;;;;;4970722;28;20025;-78
2021/08/13 08:30:12;;;;;;;5.75;4.68;;;24.20;58.70;;;;;;4971870;28;20047;-78
2021/08/13 08:32:37;;;;;;;5.93;5.20;;;24.40;61.00;;;;;;4970333;28;20023;-78
2021/08/13 08:35:03;;;;;;;6.00;4.88;;;24.50;62.80;;;;;;4986598;28;20396;-77
2021/08/13 08:37:29;;;;;;;5.05;4.65;;;24.80;59.90;;;;;;4971757;28;20031;-78
2021/08/13 08:39:55;;;;;;;5.22;4.72;;;25.00;59.50;;;;;;4972274;28;20392;-78
2021/08/13 08:42:21;;;;;;;5.15;4.63;;;25.10;58.50;;;;;;4971695;28;20376;-77
2021/08/13 08:44:47;;;;;;;5.28;4.45;;;25.20;57.20;;;;;;4956027;28;20106;-78
2021/08/13 08:47:16;;;;;;;5.70;4.75;;;25.20;56.30;;;;;;4975760;28;20511;-78
2021/08/13 08:49:43;;;;;;;5.70;5.03;;;25.30;55.00;;;;;;4971375;28;20050;-78
2021/08/13 08:52:10;;;;;;;5.45;4.88;;;25.40;56.10;;;;;;4969173;28;20058;-78
2021/08/13 08:54:38;;;;;;;4.65;4.22;;;25.60;55.10;;;;;;4970328;28;20031;-78
2021/08/13 08:57:06;;;;;;;5.25;4.75;;;25.70;53.10;;;;;;4970215;28;20030;-78
2021/08/13 08:59:32;;;;;;;7.07;4.40;;;25.70;53.80;;;;;;4970258;28;20026;-78
2021/08/13 09:01:58;;;;;;;7.82;5.05;;;25.80;52.40;;;;;;4969883;28;20038;-78
2021/08/13 09:04:24;;;;;;;4.60;4.22;;;25.80;51.50;;;;;;4971393;28;20027;-78
2021/08/13 09:06:50;;;;;;;5.90;4.38;;;25.80;51.80;;;;;;4986140;28;20114;-78
2021/08/13 09:09:16;;;;;;;5.05;4.55;;;25.80;51.80;;;;;;4970149;28;20075;-78
2021/08/13 09:11:42;;;;;;;4.68;4.28;;;25.70;51.30;;;;;;4971328;28;20039;-78
2021/08/13 09:14:11;;;;;;;6.90;4.47;;;25.50;51.10;;;;;;4961114;28;20501;-78
2021/08/13 09:16:37;;;;;;;5.75;4.57;;;25.50;50.90;;;;;;4952039;28;20031;-78
2021/08/13 09:19:08;;;;;;;7.35;4.60;;;25.90;50.80;;;;;;4951912;28;20034;-78
2021/08/13 09:21:36;;;;;;;5.72;4.60;;;26.00;52.30;;;;;;4951653;28;20027;-78
2021/08/13 09:24:10;;;;;;;6.10;4.75;;;26.10;53.20;;;;;;4951990;28;20054;-78
2021/08/13 09:26:44;;;;;;;6.72;5.35;;;25.90;50.10;;;;;;4951788;28;20027;-78
2021/08/13 09:29:11;;;;;;;6.50;4.55;;;25.90;50.20;;;;;;4951956;28;20058;-78
2021/08/13 09:31:38;;;;;;;5.63;4.60;;;25.90;51.40;;;;;;4951727;28;20035;-78
2021/08/13 09:34:14;;;;;;;5.97;4.88;;;26.00;50.20;;;;;;4952758;28;20456;-78
2021/08/13 09:36:49;;;;;;;6.68;5.28;;;26.20;49.60;;;;;;4951700;28;20080;-78
2021/08/13 09:39:15;;;;;;;5.90;4.80;;;26.20;50.00;;;;;;4966317;28;20038;-78
2021/08/13 09:41:45;;;;;;;7.03;4.88;;;26.40;50.20;;;;;;4951817;28;20032;-78
2021/08/13 09:44:11;;;;;;;4.95;4.55;;;26.50;50.40;;;;;;4961680;28;20030;-78
2021/08/13 09:46:38;;;;;;;5.05;4.13;;;26.50;49.40;;;;;;4967952;28;20400;-78
2021/08/13 09:49:13;;;;;;;7.07;4.85;;;26.30;49.40;;;;;;4970835;28;20023;-78
2021/08/13 09:51:40;;;;;;;7.57;4.85;;;26.30;51.20;;;;;;4970906;28;20034;-78
2021/08/13 09:54:07;;;;;;;5.18;4.45;;;26.20;50.60;;;;;;4985378;28;20027;-78
2021/08/13 09:56:35;;;;;;;10.52;5.30;;;26.30;50.20;;;;;;4969572;28;20039;-78
2021/08/13 09:59:20;;;;;;;5.93;4.95;;;26.30;51.40;;;;;;4969601;28;20555;-78
2021/08/13 10:01:52;;;;;;;6.82;5.32;;;26.40;51.80;;;;;;4969507;28;20030;-78
2021/08/13 10:04:32;;;;;;;5.00;4.50;;;26.40;52.20;;;;;;4972365;28;20144;-78
2021/08/13 10:06:58;;;;;;;4.95;4.55;;;26.40;50.90;;;;;;4974263;28;20031;-78
2021/08/13 10:09:29;;;;;;;6.15;4.35;;;26.60;52.80;;;;;;4961192;28;20028;-79
2021/08/13 10:12:06;;;;;;;4.63;4.22;;;26.80;50.00;;;;;;4954761;28;20058;-78
2021/08/13 10:14:36;;;;;;;6.55;4.40;;;27.00;50.40;;;;;;4967098;28;20023;-78
2021/08/13 10:17:17;;;;;;;5.07;4.57;;;26.80;48.90;;;;;;4973820;28;20062;-78
2021/08/13 10:19:45;;;;;;;5.47;4.53;;;26.80;49.20;;;;;;4974025;28;20016;-78
2021/08/13 10:22:11;;;;;;;5.10;4.50;;;26.70;48.60;;;;;;4967075;28;20026;-78
2021/08/13 10:24:37;;;;;;;5.45;4.43;;;26.50;51.90;;;;;;4954444;28;20031;-79
2021/08/13 10:27:04;;;;;;;6.75;4.53;;;26.50;52.20;;;;;;4954560;28;20080;-78
2021/08/13 10:29:30;;;;;;;4.90;4.40;;;26.50;51.60;;;;;;4969236;28;20038;-78
2021/08/13 10:31:57;;;;;;;8.18;4.93;;;26.40;51.40;;;;;;4953189;28;20023;-78
2021/08/13 10:34:22;;;;;;;5.93;4.65;;;26.40;52.30;;;;;;4955620;28;20016;-78
2021/08/13 10:36:49;;;;;;;5.85;5.00;;;26.50;55.30;;;;;;4952472;28;20560;-78
2021/08/13 10:39:18;;;;;;;8.55;4.43;;;26.80;54.90;;;;;;4969161;28;20065;-78
2021/08/13 10:41:48;;;;;;;6.50;4.65;;;27.20;55.20;;;;;;4953073;28;20063;-78
2021/08/13 10:44:17;;;;;;;5.20;4.70;;;27.00;50.40;;;;;;4954253;28;20024;-78
2021/08/13 10:46:44;;;;;;;4.75;4.25;;;27.10;53.30;;;;;;4954215;28;20019;-78
2021/08/13 10:49:12;;;;;;;4.82;4.03;;;27.00;50.20;;;;;;4954200;28;20070;-78
2021/08/13 10:51:38;;;;;;;4.55;4.15;;;27.10;48.50;;;;;;4954043;28;20042;-78
2021/08/13 10:54:09;;;;;;;5.70;4.65;;;27.30;49.00;;;;;;4973072;28;20039;-78
2021/08/13 10:56:43;;;;;;;8.98;4.93;;;27.40;50.30;;;;;;4972190;28;20026;-78
2021/08/13 10:59:09;;;;;;;6.10;4.38;;;27.50;50.80;;;;;;4972116;28;20027;-78
2021/08/13 11:01:36;;;;;;;5.95;4.70;;;27.40;49.50;;;;;;4973307;28;20129;-78
2021/08/13 11:04:01;;;;;;;8.23;4.30;;;27.50;50.60;;;;;;4972706;28;20072;-78
2021/08/13 11:06:41;;;;;;;4.78;4.38;;;27.60;50.20;;;;;;4988045;28;20051;-79
2021/08/13 11:09:08;;;;;;;6.28;4.07;;;27.70;49.70;;;;;;4971512;28;20023;-78
2021/08/13 11:11:52;;;;;;;5.60;4.45;;;27.80;49.40;;;;;;4972726;28;20401;-79
2021/08/13 11:14:29;;;;;;;5.07;4.68;;;28.00;50.10;;;;;;4987982;28;20396;-78
2021/08/13 11:16:56;;;;;;;5.63;4.32;;;28.10;50.20;;;;;;4971029;28;20019;-78
2021/08/13 11:19:23;;;;;;;5.07;4.63;;;27.90;49.60;;;;;;4972295;28;20023;-78
2021/08/13 11:21:53;;;;;;;6.68;4.68;;;27.80;50.30;;;;;;4970316;28;20030;-78
2021/08/13 11:24:25;;;;;;;6.10;5.05;;;27.70;50.90;;;;;;4953669;28;20035;-78
2021/08/13 11:26:50;;;;;;;4.50;4.10;;;27.60;50.40;;;;;;4953711;28;20093;-78
2021/08/13 11:29:34;;;;;;;7.43;4.40;;;27.50;51.10;;;;;;4968377;28;20082;-79
2021/08/13 11:32:09;;;;;;;6.40;4.68;;;27.50;50.90;;;;;;4953706;28;20041;-78
2021/08/13 11:35:15;;;;;;;4.15;3.75;;;27.40;50.70;;;;;;4967624;28;20061;-78
2021/08/13 11:37:46;;;;;;;8.07;5.10;;;27.30;50.90;;;;;;4941401;29;20035;-78
2021/08/13 11:40:11;;;;;;;8.07;5.47;;;27.20;54.60;;;;;;4968471;28;20114;-78
2021/08/13 11:42:38;;;;;;;5.70;4.53;;;27.20;53.60;;;;;;4968094;28;20209;-78
2021/08/13 11:45:05;;;;;;;7.88;4.70;;;27.10;52.80;;;;;;4953342;28;20114;-78
2021/08/13 11:47:31;;;;;;;7.82;4.90;;;27.10;52.00;;;;;;4953179;28;20027;-78
2021/08/13 11:49:57;;;;;;;8.18;4.97;;;27.30;52.20;;;;;;4953203;28;20042;-78
2021/08/13 11:52:27;;;;;;;5.43;4.97;;;27.50;53.30;;;;;;4973008;28;20381;-78
2021/08/13 11:54:53;;;;;;;5.70;4.45;;;27.60;52.80;;;;;;4968482;28;20059;-78
2021/08/13 11:57:23;;;;;;;5.97;5.30;;;27.70;52.50;;;;;;4953070;28;20060;-78
2021/08/13 11:59:50;;;;;;;6.63;5.05;;;27.80;51.90;;;;;;4953142;28;20034;-79
2021/08/13 12:02:31;;;;;;;6.90;4.57;;;27.80;51.10;;;;;;4953035;28;20022;-78
2021/08/13 12:05:08;;;;;;;22.08;6.22;;;27.90;51.70;;;;;;4968177;28;20062;-78
2021/08/13 12:07:35;;;;;;;4.85;4.43;;;27.80;53.00;;;;;;4953959;28;20436;-78
2021/08/13 12:10:18;;;;;;;5.53;4.55;;;27.90;52.40;;;;;;4972209;28;20039;-78
2021/08/13 12:12:44;;;;;;;5.57;4.20;;;27.90;51.40;;;;;;4971935;28;20030;-78
2021/08/13 12:15:12;;;;;;;5.65;4.35;;;27.90;49.50;;;;;;4954813;28;20031;-78
2021/08/13 12:17:39;;;;;;;4.40;4.00;;;28.00;50.30;;;;;;4967670;28;20027;-78
2021/08/13 12:20:07;;;;;;;7.68;4.82;;;28.10;51.80;;;;;;4952706;28;20362;-78
2021/08/13 12:22:35;;;;;;;4.93;4.38;;;28.10;51.30;;;;;;4958406;28;20034;-78
2021/08/13 12:25:03;;;;;;;5.72;4.78;;;28.40;54.30;;;;;;4971190;28;20420;-78
2021/08/13 12:27:34;;;;;;;5.35;4.63;;;28.60;51.60;;;;;;4971632;28;20031;-78
2021/08/13 12:30:00;;;;;;;4.90;4.50;;;28.60;51.70;;;;;;4971642;28;20507;-78
2021/08/13 12:32:37;;;;;;;5.93;4.32;;;28.40;50.80;;;;;;4969997;28;20540;-78
2021/08/13 12:35:05;;;;;;;7.18;4.70;;;28.10;50.40;;;;;;4971821;28;20038;-78
2021/08/13 12:37:31;;;;;;;5.18;4.68;;;28.00;51.90;;;;;;4970637;28;20027;-78
2021/08/13 12:40:00;;;;;;;5.68;5.07;;;28.10;52.80;;;;;;4986810;28;20491;-78
2021/08/13 12:42:26;;;;;;;5.85;5.25;;;28.40;54.10;;;;;;4971305;28;20106;-78
2021/08/13 12:44:52;;;;;;;6.97;5.75;;;28.50;52.20;;;;;;4971560;28;20027;-78
2021/08/13 12:47:18;;;;;;;6.72;5.07;;;28.70;52.80;;;;;;4971662;28;20365;-78